sensor_id;sensor_type;location;lat;lon;timestamp;pressure;altitude;pressure_sealevel;temperature;humidity
24651;BME280;12783;48.824;8.662;2023-05-25T00:01:03;-19414.78;;;12.28;100.00
24651;BME280;12783;48.824;8.662;2023-05-25T00:03:30;-19415.97;;;12.33;100.00
24651;BME280;12783;48.824;8.662;2023-05-25T00:05:59;-19747.34;;;12.34;100.00
24651;BME280;12783;48.824;8.662;2023-05-25T00:08:29;-19745.28;;;12.25;100.00
24651;BME280;12783;48.824;8.662;2023-05-25T00:10:56;-20405.19;;;12.15;100.00
24651;BME280;12783;48.824;8.662;2023-05-25T00:13:24;-20406.09;;;12.19;100.00
24651;BME280;12783;48.824;8.662;2023-05-25T00:15:51;-20072.16;;;12.07;100.00
24651;BME280;12783;48.824;8.662;2023-05-25T00:18:18;-20072.50;;;12.09;100.00
24651;BME280;12783;48.824;8.662;2023-05-25T00:20:45;-20072.63;;;12.09;100.00
24651;BME280;12783;48.824;8.662;2023-05-25T00:23:13;-20399.78;;;11.93;100.00
24651;BME280;12783;48.824;8.662;2023-05-25T00:25:41;-20729.94;;;11.90;100.00
24651;BME280;12783;48.824;8.662;2023-05-25T00:28:10;-20400.53;;;11.96;100.00
24651;BME280;12783;48.824;8.662;2023-05-25T00:30:37;-20402.31;;;12.04;100.00
24651;BME280;12783;48.824;8.662;2023-05-25T00:33:04;-21063.19;;;12.00;100.00
24651;BME280;12783;48.824;8.662;2023-05-25T00:35:31;-21061.63;;;11.93;100.00
24651;BME280;12783;48.824;8.662;2023-05-25T00:37:58;-21062.16;;;11.95;100.00
24651;BME280;12783;48.824;8.662;2023-05-25T00:40:25;-21391.16;;;11.88;100.00
24651;BME280;12783;48.824;8.662;2023-05-25T00:42:52;-21060.31;;;11.88;100.00
24651;BME280;12783;48.824;8.662;2023-05-25T00:45:19;-21389.00;;;11.80;100.00
24651;BME280;12783;48.824;8.662;2023-05-25T00:47:50;-21724.69;;;11.98;100.00
24651;BME280;12783;48.824;8.662;2023-05-25T00:50:26;-21724.56;;;11.98;100.00
24651;BME280;12783;48.824;8.662;2023-05-25T00:53:00;-21719.50;;;11.79;100.00
24651;BME280;12783;48.824;8.662;2023-05-25T00:55:28;-22051.06;;;11.82;100.00
24651;BME280;12783;48.824;8.662;2023-05-25T00:57:58;-22051.34;;;11.83;100.00
24651;BME280;12783;48.824;8.662;2023-05-25T01:00:28;-22050.34;;;11.80;100.00
24651;BME280;12783;48.824;8.662;2023-05-25T01:02:57;-22048.13;;;11.71;100.00
24651;BME280;12783;48.824;8.662;2023-05-25T01:05:26;-22049.38;;;11.76;100.00
24651;BME280;12783;48.824;8.662;2023-05-25T01:07:58;-22048.81;;;11.74;100.00
24651;BME280;12783;48.824;8.662;2023-05-25T01:10:29;-22049.66;;;11.77;100.00
24651;BME280;12783;48.824;8.662;2023-05-25T01:12:59;-22049.09;;;11.75;100.00
24651;BME280;12783;48.824;8.662;2023-05-25T01:15:29;-22049.38;;;11.76;100.00
24651;BME280;12783;48.824;8.662;2023-05-25T01:17:58;-22047.16;;;11.68;100.00
24651;BME280;12783;48.824;8.662;2023-05-25T01:20:26;-22047.41;;;11.69;100.00
24651;BME280;12783;48.824;8.662;2023-05-25T01:23:07;-22050.50;;;11.80;100.00
24651;BME280;12783;48.824;8.662;2023-05-25T01:25:44;-22048.81;;;11.74;100.00
24651;BME280;12783;48.824;8.662;2023-05-25T01:28:36;-22047.41;;;11.69;100.00
24651;BME280;12783;48.824;8.662;2023-05-25T01:31:07;-22044.91;;;11.60;100.00
24651;BME280;12783;48.824;8.662;2023-05-25T01:33:35;-21713.19;;;11.56;100.00
24651;BME280;12783;48.824;8.662;2023-05-25T01:36:04;-22046.59;;;11.66;100.00
24651;BME280;12783;48.824;8.662;2023-05-25T01:38:32;-22048.69;;;11.73;100.00
24651;BME280;12783;48.824;8.662;2023-05-25T01:40:59;-21715.78;;;11.65;100.00
24651;BME280;12783;48.824;8.662;2023-05-25T01:43:26;-21715.66;;;11.65;100.00
24651;BME280;12783;48.824;8.662;2023-05-25T01:46:14;-22050.78;;;11.81;100.00
24651;BME280;12783;48.824;8.662;2023-05-25T01:48:56;-21719.22;;;11.78;100.00
24651;BME280;12783;48.824;8.662;2023-05-25T01:51:42;-21718.41;;;11.75;100.00
24651;BME280;12783;48.824;8.662;2023-05-25T01:54:18;-21720.31;;;11.82;100.00
24651;BME280;12783;48.824;8.662;2023-05-25T01:56:48;-21719.34;;;11.79;100.00
24651;BME280;12783;48.824;8.662;2023-05-25T01:59:20;-21716.19;;;11.67;100.00
24651;BME280;12783;48.824;8.662;2023-05-25T02:01:48;-21385.63;;;11.67;100.00
24651;BME280;12783;48.824;8.662;2023-05-25T02:04:19;-21386.59;;;11.71;100.00
24651;BME280;12783;48.824;8.662;2023-05-25T02:06:52;-21384.97;;;11.65;100.00
24651;BME280;12783;48.824;8.662;2023-05-25T02:09:18;-21054.25;;;11.65;100.00
24651;BME280;12783;48.824;8.662;2023-05-25T02:11:45;-21385.25;;;11.66;100.00
24651;BME280;12783;48.824;8.662;2023-05-25T02:14:12;-21386.19;;;11.69;100.00
24651;BME280;12783;48.824;8.662;2023-05-25T02:16:40;-21385.91;;;11.68;100.00
24651;BME280;12783;48.824;8.662;2023-05-25T02:19:07;-21386.19;;;11.69;100.00
24651;BME280;12783;48.824;8.662;2023-05-25T02:21:34;-21383.50;;;11.59;100.00
24651;BME280;12783;48.824;8.662;2023-05-25T02:24:04;-21383.91;;;11.61;100.00
24651;BME280;12783;48.824;8.662;2023-05-25T02:26:31;-21713.19;;;11.56;100.00
24651;BME280;12783;48.824;8.662;2023-05-25T02:28:57;-21383.91;;;11.61;100.00
24651;BME280;12783;48.824;8.662;2023-05-25T02:31:24;-21384.69;;;11.64;100.00
24651;BME280;12783;48.824;8.662;2023-05-25T02:33:51;-21055.56;;;11.70;100.00
24651;BME280;12783;48.824;8.662;2023-05-25T02:36:18;-20724.53;;;11.69;100.00
24651;BME280;12783;48.824;8.662;2023-05-25T02:38:45;-20725.56;;;11.73;100.00
24651;BME280;12783;48.824;8.662;2023-05-25T02:41:15;-21057.66;;;11.78;100.00
24651;BME280;12783;48.824;8.662;2023-05-25T02:43:42;-20727.38;;;11.80;100.00
24651;BME280;12783;48.824;8.662;2023-05-25T02:46:09;-20394.22;;;11.71;100.00
24651;BME280;12783;48.824;8.662;2023-05-25T02:48:36;-20728.00;;;11.83;100.00
24651;BME280;12783;48.824;8.662;2023-05-25T02:51:03;-20727.38;;;11.80;100.00
24651;BME280;12783;48.824;8.662;2023-05-25T02:53:30;-20728.78;;;11.86;100.00
24651;BME280;12783;48.824;8.662;2023-05-25T02:55:57;-20398.53;;;11.88;100.00
24651;BME280;12783;48.824;8.662;2023-05-25T02:58:25;-20397.88;;;11.86;100.00
24651;BME280;12783;48.824;8.662;2023-05-25T03:00:53;-19406.06;;;11.90;100.00
24651;BME280;12783;48.824;8.662;2023-05-25T03:03:20;-20063.88;;;11.73;100.00
24651;BME280;12783;48.824;8.662;2023-05-25T03:05:49;-19405.22;;;11.87;100.00
24651;BME280;12783;48.824;8.662;2023-05-25T03:08:16;-19733.44;;;11.75;100.00
24651;BME280;12783;48.824;8.662;2023-05-25T03:10:43;-19731.75;;;11.68;100.00
24651;BME280;12783;48.824;8.662;2023-05-25T03:13:10;-19731.03;;;11.65;100.00
24651;BME280;12783;48.824;8.662;2023-05-25T03:15:37;-19400.38;;;11.66;100.00
24651;BME280;12783;48.824;8.662;2023-05-25T03:18:07;-19730.31;;;11.62;100.00
24651;BME280;12783;48.824;8.662;2023-05-25T03:20:34;-19731.03;;;11.65;100.00
24651;BME280;12783;48.824;8.662;2023-05-25T03:23:01;-20061.16;;;11.62;100.00
24651;BME280;12783;48.824;8.662;2023-05-25T03:25:28;-19730.56;;;11.63;100.00
24651;BME280;12783;48.824;8.662;2023-05-25T03:27:55;-20058.69;;;11.51;100.00
24651;BME280;12783;48.824;8.662;2023-05-25T03:30:23;-20715.75;;;11.34;100.00
24651;BME280;12783;48.824;8.662;2023-05-25T03:32:50;-21041.09;;;11.14;100.00
24651;BME280;12783;48.824;8.662;2023-05-25T03:35:19;-21374.34;;;11.24;100.00
24651;BME280;12783;48.824;8.662;2023-05-25T03:37:46;-21373.16;;;11.20;100.00
24651;BME280;12783;48.824;8.662;2023-05-25T03:40:14;-21372.63;;;11.18;100.00
24651;BME280;12783;48.824;8.662;2023-05-25T03:42:41;-22034.28;;;11.21;100.00
24651;BME280;12783;48.824;8.662;2023-05-25T03:45:09;-21702.50;;;11.16;100.00
24651;BME280;12783;48.824;8.662;2023-05-25T03:47:36;-21701.41;;;11.12;100.00
24651;BME280;12783;48.824;8.662;2023-05-25T03:50:04;-21705.53;;;11.27;100.00
24651;BME280;12783;48.824;8.662;2023-05-25T03:52:33;-22038.34;;;11.36;100.00
24651;BME280;12783;48.824;8.662;2023-05-25T03:54:59;-22037.22;;;11.32;100.00
24651;BME280;12783;48.824;8.662;2023-05-25T03:57:30;-21704.41;;;11.23;100.00
24651;BME280;12783;48.824;8.662;2023-05-25T03:59:58;-22036.81;;;11.30;100.00
24651;BME280;12783;48.824;8.662;2023-05-25T04:02:24;-22035.97;;;11.27;100.00
24651;BME280;12783;48.824;8.662;2023-05-25T04:04:52;-22037.38;;;11.32;100.00
24651;BME280;12783;48.824;8.662;2023-05-25T04:07:19;-22035.97;;;11.27;100.00
24651;BME280;12783;48.824;8.662;2023-05-25T04:09:46;-22035.69;;;11.26;100.00
24651;BME280;12783;48.824;8.662;2023-05-25T04:12:13;-22037.94;;;11.34;100.00
24651;BME280;12783;48.824;8.662;2023-05-25T04:14:40;-21706.34;;;11.30;100.00
24651;BME280;12783;48.824;8.662;2023-05-25T04:17:08;-21706.19;;;11.29;100.00
24651;BME280;12783;48.824;8.662;2023-05-25T04:19:35;-22038.91;;;11.38;100.00
24651;BME280;12783;48.824;8.662;2023-05-25T04:22:02;-22037.66;;;11.33;100.00
24651;BME280;12783;48.824;8.662;2023-05-25T04:24:29;-22040.16;;;11.42;100.00
24651;BME280;12783;48.824;8.662;2023-05-25T04:26:55;-22369.81;;;11.39;100.00
24651;BME280;12783;48.824;8.662;2023-05-25T04:29:22;-22370.94;;;11.43;100.00
24651;BME280;12783;48.824;8.662;2023-05-25T04:31:49;-22369.53;;;11.38;100.00
24651;BME280;12783;48.824;8.662;2023-05-25T04:34:17;-22368.81;;;11.36;100.00
24651;BME280;12783;48.824;8.662;2023-05-25T04:36:47;-22370.38;;;11.41;100.00
24651;BME280;12783;48.824;8.662;2023-05-25T04:39:14;-22370.22;;;11.41;100.00
24651;BME280;12783;48.824;8.662;2023-05-25T04:41:42;-22372.09;;;11.47;100.00
24651;BME280;12783;48.824;8.662;2023-05-25T04:44:09;-22041.00;;;11.45;100.00
24651;BME280;12783;48.824;8.662;2023-05-25T04:46:36;-22042.25;;;11.50;100.00
24651;BME280;12783;48.824;8.662;2023-05-25T04:49:05;-22373.22;;;11.51;100.00
24651;BME280;12783;48.824;8.662;2023-05-25T04:51:35;-22374.22;;;11.55;100.00
24651;BME280;12783;48.824;8.662;2023-05-25T04:54:03;-22702.56;;;11.47;100.00
24651;BME280;12783;48.824;8.662;2023-05-25T04:56:31;-22704.31;;;11.53;100.00
24651;BME280;12783;48.824;8.662;2023-05-25T04:58:58;-22703.75;;;11.51;100.00
24651;BME280;12783;48.824;8.662;2023-05-25T05:01:25;-22702.56;;;11.47;100.00
24651;BME280;12783;48.824;8.662;2023-05-25T05:03:52;-22375.78;;;11.61;100.00
24651;BME280;12783;48.824;8.662;2023-05-25T05:06:19;-22704.91;;;11.56;100.00
24651;BME280;12783;48.824;8.662;2023-05-25T05:08:47;-22374.38;;;11.56;100.00
24651;BME280;12783;48.824;8.662;2023-05-25T05:11:15;-22044.34;;;11.58;100.00
24651;BME280;12783;48.824;8.662;2023-05-25T05:13:42;-22709.84;;;11.73;100.00
24651;BME280;12783;48.824;8.662;2023-05-25T05:16:09;-22049.25;;;11.75;100.00
24651;BME280;12783;48.824;8.662;2023-05-25T05:18:35;-22049.94;;;11.78;100.00
24651;BME280;12783;48.824;8.662;2023-05-25T05:21:02;-22379.19;;;11.73;100.00
24651;BME280;12783;48.824;8.662;2023-05-25T05:23:30;-22383.75;;;11.89;100.00
24651;BME280;12783;48.824;8.662;2023-05-25T05:25:59;-22381.06;;;11.80;100.00
24651;BME280;12783;48.824;8.662;2023-05-25T05:28:26;-22053.44;;;11.91;100.00
24651;BME280;12783;48.824;8.662;2023-05-25T05:30:54;-22054.13;;;11.93;100.00
24651;BME280;12783;48.824;8.662;2023-05-25T05:33:21;-21728.81;;;12.14;100.00
24651;BME280;12783;48.824;8.662;2023-05-25T05:35:50;-22059.72;;;12.14;100.00
24651;BME280;12783;48.824;8.662;2023-05-25T05:38:18;-21728.53;;;12.13;100.00
24651;BME280;12783;48.824;8.662;2023-05-25T05:40:45;-22064.75;;;12.32;100.00
24651;BME280;12783;48.824;8.662;2023-05-25T05:43:13;-21406.03;;;12.45;100.00
24651;BME280;12783;48.824;8.662;2023-05-25T05:45:41;-21404.56;;;12.39;100.00
24651;BME280;12783;48.824;8.662;2023-05-25T05:48:08;-22065.00;;;12.33;100.00
24651;BME280;12783;48.824;8.662;2023-05-25T05:50:38;-21404.03;;;12.37;100.00
24651;BME280;12783;48.824;8.662;2023-05-25T05:53:08;-21734.00;;;12.33;100.00
24651;BME280;12783;48.824;8.662;2023-05-25T05:55:35;-22066.41;;;12.38;100.00
24651;BME280;12783;48.824;8.662;2023-05-25T05:58:02;-22395.56;;;12.32;100.00
24651;BME280;12783;48.824;8.662;2023-05-25T06:00:29;-22724.19;;;12.24;100.00
24651;BME280;12783;48.824;8.662;2023-05-25T06:02:57;-23054.31;;;12.21;100.00
24651;BME280;12783;48.824;8.662;2023-05-25T06:05:24;-22398.56;;;12.42;100.00
24651;BME280;12783;48.824;8.662;2023-05-25T06:07:51;-22408.94;;;12.80;100.00
24651;BME280;12783;48.824;8.662;2023-05-25T06:10:18;-21414.22;;;12.76;100.00
24651;BME280;12783;48.824;8.662;2023-05-25T06:12:44;-21414.50;;;12.77;100.00
24651;BME280;12783;48.824;8.662;2023-05-25T06:15:11;-21746.31;;;12.79;100.00
24651;BME280;12783;48.824;8.662;2023-05-25T06:17:39;-21420.00;;;12.98;100.00
24651;BME280;12783;48.824;8.662;2023-05-25T06:20:06;-21423.75;;;13.12;100.00
24651;BME280;12783;48.824;8.662;2023-05-25T06:22:34;-21750.41;;;12.95;100.00
24651;BME280;12783;48.824;8.662;2023-05-25T06:25:01;-21419.44;;;12.96;100.00
24651;BME280;12783;48.824;8.662;2023-05-25T06:27:28;-21098.94;;;13.39;100.00
24651;BME280;12783;48.824;8.662;2023-05-25T06:29:55;-20773.69;;;13.64;100.00
24651;BME280;12783;48.824;8.662;2023-05-25T06:32:22;-20440.97;;;13.61;100.00
24651;BME280;12783;48.824;8.662;2023-05-25T06:34:49;-20771.78;;;13.56;100.00
24651;BME280;12783;48.824;8.662;2023-05-25T06:37:16;-21112.06;;;13.90;100.00
24651;BME280;12783;48.824;8.662;2023-05-25T06:39:43;-21442.75;;;13.85;100.00
24651;BME280;12783;48.824;8.662;2023-05-25T06:42:10;-21109.69;;;13.80;100.00
24651;BME280;12783;48.824;8.662;2023-05-25T06:44:37;-21437.53;;;13.65;100.00
24651;BME280;12783;48.824;8.662;2023-05-25T06:47:04;-21115.47;;;14.03;100.00
24651;BME280;12783;48.824;8.662;2023-05-25T06:49:32;-21114.94;;;14.01;100.00
24651;BME280;12783;48.824;8.662;2023-05-25T06:51:59;-20782.44;;;13.99;100.00
24651;BME280;12783;48.824;8.662;2023-05-25T06:54:26;-20118.38;;;13.99;100.00
24651;BME280;12783;48.824;8.662;2023-05-25T06:56:53;-20122.31;;;14.15;100.00
24651;BME280;12783;48.824;8.662;2023-05-25T06:59:20;-20453.94;;;14.13;100.00
24651;BME280;12783;48.824;8.662;2023-05-25T07:01:47;-19793.38;;;14.29;100.00
24651;BME280;12783;48.824;8.662;2023-05-25T07:04:15;-20785.53;;;14.11;100.00
24651;BME280;12783;48.824;8.662;2023-05-25T07:06:42;-20456.31;;;14.23;100.00
24651;BME280;12783;48.824;8.662;2023-05-25T07:09:09;-16815.53;;;15.03;100.00
24651;BME280;12783;48.824;8.662;2023-05-25T07:11:36;-16822.72;;;15.41;100.00
24651;BME280;12783;48.824;8.662;2023-05-25T07:14:03;-14159.59;;;15.64;100.00
24651;BME280;12783;48.824;8.662;2023-05-25T07:16:30;-17483.22;;;15.12;100.00
24651;BME280;12783;48.824;8.662;2023-05-25T07:18:57;-17482.59;;;15.09;100.00
24651;BME280;12783;48.824;8.662;2023-05-25T07:21:30;-15163.38;;;15.84;100.00
24651;BME280;12783;48.824;8.662;2023-05-25T07:23:58;-14828.78;;;15.78;100.00
24651;BME280;12783;48.824;8.662;2023-05-25T07:26:26;-17817.38;;;15.18;100.00
24651;BME280;12783;48.824;8.662;2023-05-25T07:28:53;-12158.59;;;15.73;100.00
24651;BME280;12783;48.824;8.662;2023-05-25T07:31:20;-9822.34;;;15.89;100.00
24651;BME280;12783;48.824;8.662;2023-05-25T07:33:48;-15489.19;;;15.38;100.00
24651;BME280;12783;48.824;8.662;2023-05-25T07:36:16;-12820.91;;;15.30;100.00
24651;BME280;12783;48.824;8.662;2023-05-25T07:38:43;-13157.25;;;15.52;100.00
24651;BME280;12783;48.824;8.662;2023-05-25T07:41:10;-14819.63;;;15.19;100.00
24651;BME280;12783;48.824;8.662;2023-05-25T07:43:39;-15816.16;;;15.01;100.00
24651;BME280;12783;48.824;8.662;2023-05-25T07:46:06;-15816.50;;;15.03;100.00
24651;BME280;12783;48.824;8.662;2023-05-25T07:48:35;-14486.81;;;15.22;100.00
24651;BME280;12783;48.824;8.662;2023-05-25T07:51:08;-11490.91;;;15.73;100.00
24651;BME280;12783;48.824;8.662;2023-05-25T07:53:35;-12497.06;;;16.12;100.00
24651;BME280;12783;48.824;8.662;2023-05-25T07:56:03;-15828.34;;;15.72;100.00
24651;BME280;12783;48.824;8.662;2023-05-25T07:58:32;-12162.88;;;16.10;100.00
24651;BME280;12783;48.824;8.662;2023-05-25T08:00:59;-9826.78;;;16.47;100.00
24651;BME280;12783;48.824;8.662;2023-05-25T08:03:26;-7150.53;;;16.60;100.00
24651;BME280;12783;48.824;8.662;2023-05-25T08:06:13;-5476.34;;;16.85;100.00
24651;BME280;12783;48.824;8.662;2023-05-25T08:08:40;-3465.94;;;16.55;100.00
24651;BME280;12783;48.824;8.662;2023-05-25T08:11:07;-7820.59;;;16.73;100.00
24651;BME280;12783;48.824;8.662;2023-05-25T08:13:34;-6816.41;;;16.84;100.00
24651;BME280;12783;48.824;8.662;2023-05-25T08:16:01;-3129.59;;;16.94;100.00
24651;BME280;12783;48.824;8.662;2023-05-25T08:18:28;-12837.34;;;16.63;100.00
24651;BME280;12783;48.824;8.662;2023-05-25T08:20:55;-11495.38;;;16.16;100.00
24651;BME280;12783;48.824;8.662;2023-05-25T08:23:22;-11163.91;;;16.44;100.00
24651;BME280;12783;48.824;8.662;2023-05-25T08:25:49;-8157.03;;;17.07;100.00
24651;BME280;12783;48.824;8.662;2023-05-25T08:28:16;-5141.25;;;17.12;100.00
24651;BME280;12783;48.824;8.662;2023-05-25T08:30:45;-9160.44;;;16.88;100.00
24651;BME280;12783;48.824;8.662;2023-05-25T08:33:12;-11166.50;;;16.70;100.00
24651;BME280;12783;48.824;8.662;2023-05-25T08:35:39;-11839.50;;;17.10;100.00
24651;BME280;12783;48.824;8.662;2023-05-25T08:38:08;-9833.47;;;17.36;100.00
24651;BME280;12783;48.824;8.662;2023-05-25T08:40:35;-8493.34;;;17.33;100.00
24651;BME280;12783;48.824;8.662;2023-05-25T08:43:06;-4805.69;;;17.71;100.00
24651;BME280;12783;48.824;8.662;2023-05-25T08:45:33;-11172.88;;;17.36;100.00
24651;BME280;12783;48.824;8.662;2023-05-25T08:48:09;-6148.28;;;17.94;100.00
24651;BME280;12783;48.824;8.662;2023-05-25T08:51:06;7661.19;;;18.96;100.00
24651;BME280;12783;48.824;8.662;2023-05-25T08:53:39;-6148.56;;;18.12;100.00
24651;BME280;12783;48.824;8.662;2023-05-25T08:56:15;-7154.22;;;17.72;100.00
24651;BME280;12783;48.824;8.662;2023-05-25T08:58:49;-13843.31;;;16.88;100.00
24651;BME280;12783;48.824;8.662;2023-05-25T09:01:20;-16512.69;;;16.69;100.00
24651;BME280;12783;48.824;8.662;2023-05-25T09:03:49;-13507.56;;;16.77;100.00
24651;BME280;12783;48.824;8.662;2023-05-25T09:06:17;-17520.00;;;16.98;100.00
24651;BME280;12783;48.824;8.662;2023-05-25T09:08:44;-17854.53;;;17.01;100.00
24651;BME280;12783;48.824;8.662;2023-05-25T09:11:12;-12850.22;;;17.68;100.00
24651;BME280;12783;48.824;8.662;2023-05-25T09:13:45;-13857.09;;;17.87;100.00
24651;BME280;12783;48.824;8.662;2023-05-25T09:16:12;-10851.34;;;18.82;100.00
24651;BME280;12783;48.824;8.662;2023-05-25T09:18:39;-10516.69;;;18.94;100.00
24651;BME280;12783;48.824;8.662;2023-05-25T09:21:06;-6822.53;;;19.11;100.00
24651;BME280;12783;48.824;8.662;2023-05-25T09:23:34;4286.88;;;18.94;100.00
24651;BME280;12783;48.824;8.662;2023-05-25T09:26:02;3949.09;;;18.90;100.00
24651;BME280;12783;48.824;8.662;2023-05-25T09:28:29;236.94;;;18.24;100.00
24651;BME280;12783;48.824;8.662;2023-05-25T09:30:56;908.00;;;18.05;100.00
24651;BME280;12783;48.824;8.662;2023-05-25T09:33:23;-7155.44;;;18.10;100.00
24651;BME280;12783;48.824;8.662;2023-05-25T09:35:50;-9168.38;;;18.11;100.00
24651;BME280;12783;48.824;8.662;2023-05-25T09:38:17;911.78;;;18.44;100.00
24651;BME280;12783;48.824;8.662;2023-05-25T09:40:45;-6484.44;;;18.22;100.00
24651;BME280;12783;48.824;8.662;2023-05-25T09:43:13;574.59;;;18.37;100.00
24651;BME280;12783;48.824;8.662;2023-05-25T09:45:54;-5813.41;;;18.62;100.00
24651;BME280;12783;48.824;8.662;2023-05-25T09:48:21;1586.41;;;18.57;100.00
24651;BME280;12783;48.824;8.662;2023-05-25T09:50:50;-6149.81;;;18.90;100.00
24651;BME280;12783;48.824;8.662;2023-05-25T09:53:17;1924.31;;;18.67;100.00
24651;BME280;12783;48.824;8.662;2023-05-25T09:55:47;-7156.72;;;18.50;100.00
24651;BME280;12783;48.824;8.662;2023-05-25T09:58:25;-768.25;;;18.80;100.00
24651;BME280;12783;48.824;8.662;2023-05-25T10:00:53;-7493.16;;;18.67;100.00
24651;BME280;12783;48.824;8.662;2023-05-25T10:03:22;-4805.50;;;18.09;100.00
24651;BME280;12783;48.824;8.662;2023-05-25T10:05:51;-2115.16;;;18.65;100.00
24651;BME280;12783;48.824;8.662;2023-05-25T10:08:19;1927.28;;;18.94;100.00
24651;BME280;12783;48.824;8.662;2023-05-25T10:10:54;238.00;;;18.36;100.00
24651;BME280;12783;48.824;8.662;2023-05-25T10:13:21;-5814.69;;;19.87;100.00
24651;BME280;12783;48.824;8.662;2023-05-25T10:15:52;11407.56;;;20.14;100.00
24651;BME280;12783;48.824;8.662;2023-05-25T10:18:25;9024.50;;;19.53;100.00
24651;BME280;12783;48.824;8.662;2023-05-25T10:21:02;5642.91;;;19.34;100.00
24651;BME280;12783;48.824;8.662;2023-05-25T10:23:46;12409.16;;;19.63;100.00
24651;BME280;12783;48.824;8.662;2023-05-25T10:26:18;9038.34;;;20.14;100.00
24651;BME280;12783;48.824;8.662;2023-05-25T10:28:50;6327.69;;;19.87;100.00
24651;BME280;12783;48.824;8.662;2023-05-25T10:31:18;24283.16;;;19.81;100.00
24651;BME280;12783;48.824;8.662;2023-05-25T10:33:45;18491.56;;;19.24;100.00
24651;BME280;12783;48.824;8.662;2023-05-25T10:36:19;11735.31;;;19.74;100.00
24651;BME280;12783;48.824;8.662;2023-05-25T10:38:46;20216.63;;;20.00;100.00
24651;BME280;12783;48.824;8.662;2023-05-25T10:41:19;8004.31;;;19.23;100.00
24651;BME280;12783;48.824;8.662;2023-05-25T10:43:47;10377.56;;;19.56;100.00
24651;BME280;12783;48.824;8.662;2023-05-25T10:46:15;22591.75;;;19.96;100.00
24651;BME280;12783;48.824;8.662;2023-05-25T10:48:48;13765.72;;;19.72;100.00
24651;BME280;12783;48.824;8.662;2023-05-25T10:51:19;13098.66;;;20.07;100.00
24651;BME280;12783;48.824;8.662;2023-05-25T10:53:58;17806.88;;;19.05;100.00
24651;BME280;12783;48.824;8.662;2023-05-25T10:56:25;6978.63;;;18.57;100.00
24651;BME280;12783;48.824;8.662;2023-05-25T10:58:52;6302.38;;;18.48;100.00
24651;BME280;12783;48.824;8.662;2023-05-25T11:01:19;1923.31;;;18.58;100.00
24651;BME280;12783;48.824;8.662;2023-05-25T11:03:53;-94.06;;;18.91;100.00
24651;BME280;12783;48.824;8.662;2023-05-25T11:09:29;-1105.00;;;18.78;100.00
24651;BME280;12783;48.824;8.662;2023-05-25T11:12:01;-1442.53;;;18.61;100.00
24651;BME280;12783;48.824;8.662;2023-05-25T11:14:32;3271.59;;;18.65;100.00
24651;BME280;12783;48.824;8.662;2023-05-25T11:17:18;10031.03;;;19.21;100.00
24651;BME280;12783;48.824;8.662;2023-05-25T11:19:51;9368.78;;;19.80;100.00
24651;BME280;12783;48.824;8.662;2023-05-25T11:22:29;28729.19;;;20.31;100.00
24651;BME280;12783;48.824;8.662;2023-05-25T11:24:59;35970.50;;;21.59;100.00
24651;BME280;12783;48.824;8.662;2023-05-25T11:27:28;52095.81;;;21.45;100.00
24651;BME280;12783;48.824;8.662;2023-05-25T11:29:57;40433.22;;;20.78;100.00
24651;BME280;12783;48.824;8.662;2023-05-25T11:32:25;32301.03;;;20.32;100.00
24651;BME280;12783;48.824;8.662;2023-05-25T11:34:54;51779.00;;;20.00;100.00
24651;BME280;12783;48.824;8.662;2023-05-25T11:37:22;51204.25;;;20.75;100.00
24651;BME280;12783;48.824;8.662;2023-05-25T11:39:54;72685.41;;;21.22;100.00
24651;BME280;12783;48.824;8.662;2023-05-25T11:42:26;44172.38;;;21.26;100.00
24651;BME280;12783;48.824;8.662;2023-05-25T11:44:53;61442.31;;;21.19;100.00
24651;BME280;12783;48.824;8.662;2023-05-25T11:47:21;62550.88;;;20.94;100.00
24651;BME280;12783;48.824;8.662;2023-05-25T11:49:54;72568.91;;;21.20;100.00
24651;BME280;12783;48.824;8.662;2023-05-25T11:52:21;59815.69;;;21.13;100.00
24651;BME280;12783;48.824;8.662;2023-05-25T11:54:48;59245.56;;;21.29;100.00
24651;BME280;12783;48.824;8.662;2023-05-25T11:57:18;57550.44;;;21.05;100.00
24651;BME280;12783;48.824;8.662;2023-05-25T11:59:50;60355.47;;;21.10;100.00
24651;BME280;12783;48.824;8.662;2023-05-25T12:02:18;73666.13;;;21.27;100.00
24651;BME280;12783;48.824;8.662;2023-05-25T12:04:59;67187.84;;;21.59;100.00
24651;BME280;12783;48.824;8.662;2023-05-25T12:07:30;61970.31;;;20.82;100.00
24651;BME280;12783;48.824;8.662;2023-05-25T12:10:09;70602.78;;;21.42;100.00
24651;BME280;12783;48.824;8.662;2023-05-25T12:12:44;74632.41;;;21.80;100.00
24651;BME280;12783;48.824;8.662;2023-05-25T12:15:20;82181.66;;;22.33;100.00
24651;BME280;12783;48.824;8.662;2023-05-25T12:17:48;82311.09;;;21.98;100.00
24651;BME280;12783;48.824;8.662;2023-05-25T12:20:17;81449.81;;;21.78;100.00
24651;BME280;12783;48.824;8.662;2023-05-25T12:22:45;82275.25;;;21.45;100.00
24651;BME280;12783;48.824;8.662;2023-05-25T12:25:13;83544.91;;;21.72;100.00
24651;BME280;12783;48.824;8.662;2023-05-25T12:27:41;78130.53;;;21.33;100.00
24651;BME280;12783;48.824;8.662;2023-05-25T12:30:10;79267.00;;;20.76;100.00
24651;BME280;12783;48.824;8.662;2023-05-25T12:32:58;76753.28;;;21.65;100.00
24651;BME280;12783;48.824;8.662;2023-05-25T12:35:43;94539.03;;;22.27;100.00
24651;BME280;12783;48.824;8.662;2023-05-25T12:38:19;92122.22;;;22.21;100.00
24651;BME280;12783;48.824;8.662;2023-05-25T12:41:04;86854.31;;;22.64;100.00
24651;BME280;12783;48.824;8.662;2023-05-25T12:43:40;87590.47;;;21.96;100.00
24651;BME280;12783;48.824;8.662;2023-05-25T12:46:09;77705.72;;;21.71;100.00
24651;BME280;12783;48.824;8.662;2023-05-25T12:48:36;84758.81;;;22.19;100.00
24651;BME280;12783;48.824;8.662;2023-05-25T12:51:03;89696.69;;;22.11;100.00
24651;BME280;12783;48.824;8.662;2023-05-25T12:53:30;74833.53;;;21.51;100.00
24651;BME280;12783;48.824;8.662;2023-05-25T12:56:02;81305.41;;;21.31;100.00
24651;BME280;12783;48.824;8.662;2023-05-25T12:58:29;93049.53;;;22.14;100.00